Rocky Point, North Carolina
Current Conditions -  °F | °C
As of 10:53 AM on Sunday 23 Nov 2014 (Local Time) from KILM Reporting Station
Light Rain Light Rain  
Wind Chill: 60°   Ceiling: 11000
Heat Index: 60°   Visibility: 6mi
Dew Point: 59°   Wind: 6mph
Humidity: 96%   Direction: 110°ESE
Pressure: 30.19"   Gusts: NA
Location:  34.43°N, 77.89°W
Report Text: KILM 231553Z 11005KT 6SM -RA BR BKN110 16/15 A3019 RMK AO2 PRESFR SLP222 P0004 T01560150
Loading
Personal Weather Stations






























Interactive Weather Map New forecast layout! Learn more

10-Day Weather Forecast

Advertisements
Track Severe Weather on mobile